Time;durP1;ratioP1;P1;durP2;ratioP2;P2;SDS_P1;SDS_P2;PMS_P1;PMS_P2;Temp;Humidity;BMP_temperature;BMP_pressure;BME280_temperature;BME280_humidity;BME280_pressure;Samples;Min_cycle;Max_cycle;Signal;HPM_P1;HPM_P2
2021/07/26 00:02:18;;;;;;;24.57;16.03;;;;;;;;;;3573677;40;20051;-66
2021/07/26 00:04:43;;;;;;;29.47;15.77;;;;;;;;;;3575970;40;20561;-65
2021/07/26 00:07:08;;;;;;;21.53;14.70;;;;;;;;;;3575111;40;20429;-66
2021/07/26 00:09:34;;;;;;;20.63;15.00;;;;;;;;;;3574186;40;20037;-59
2021/07/26 00:11:59;;;;;;;22.98;15.32;;;;;;;;;;3575400;40;20025;-59
2021/07/26 00:14:24;;;;;;;23.87;16.43;;;;;;;;;;3573967;40;20087;-59
2021/07/26 00:16:49;;;;;;;21.97;15.30;;;;;;;;;;3564618;40;20032;-65
2021/07/26 00:19:15;;;;;;;27.27;16.40;;;;;;;;;;3575218;40;20274;-66
2021/07/26 00:21:40;;;;;;;24.17;15.68;;;;;;;;;;3575118;40;20072;-66
2021/07/26 00:24:05;;;;;;;25.80;16.67;;;;;;;;;;3578184;40;20137;-66
2021/07/26 00:26:30;;;;;;;23.30;15.47;;;;;;;;;;3576111;40;20102;-67
2021/07/26 00:28:56;;;;;;;23.13;15.90;;;;;;;;;;3574279;40;20137;-66
2021/07/26 00:31:21;;;;;;;24.93;16.83;;;;;;;;;;3575955;40;20846;-67
2021/07/26 00:34:07;;;;;;;21.80;15.20;;;;;;;;;;3574225;40;20028;-66
2021/07/26 00:36:32;;;;;;;;;;;;;;;;;;3576585;40;20683;-66
2021/07/26 00:38:57;;;;;;;26.63;15.90;;;;;;;;;;3574295;40;19988;-67
2021/07/26 00:41:22;;;;;;;24.47;15.97;;;;;;;;;;3576051;40;20024;-66
2021/07/26 00:43:47;;;;;;;21.77;15.95;;;;;;;;;;3575487;40;20035;-66
2021/07/26 00:46:13;;;;;;;24.37;16.17;;;;;;;;;;3573826;40;20381;-66
2021/07/26 00:48:38;;;;;;;29.50;17.37;;;;;;;;;;3574590;40;20040;-66
2021/07/26 00:51:03;;;;;;;27.63;16.17;;;;;;;;;;3575517;40;20029;-67
2021/07/26 00:53:28;;;;;;;23.27;16.17;;;;;;;;;;3576269;40;20052;-67
2021/07/26 00:55:54;;;;;;;25.27;16.88;;;;;;;;;;3574278;40;20481;-66
2021/07/26 00:58:19;;;;;;;25.73;15.93;;;;;;;;;;3576443;40;20035;-65
2021/07/26 01:00:44;;;;;;;21.63;15.43;;;;;;;;;;3576686;40;20312;-66
2021/07/26 01:03:09;;;;;;;23.00;15.87;;;;;;;;;;3578275;40;20021;-65
2021/07/26 01:05:34;;;;;;;21.23;15.40;;;;;;;;;;3575061;40;20031;-66
2021/07/26 01:08:00;;;;;;;22.73;15.27;;;;;;;;;;3576018;40;20085;-66
2021/07/26 01:10:25;;;;;;;27.10;16.07;;;;;;;;;;3575022;40;20132;-66
2021/07/26 01:12:50;;;;;;;25.77;15.87;;;;;;;;;;3576083;40;20377;-66
2021/07/26 01:15:15;;;;;;;23.37;15.17;;;;;;;;;;3575756;40;20029;-59
2021/07/26 01:17:40;;;;;;;21.43;14.80;;;;;;;;;;3576165;40;20033;-59
2021/07/26 01:20:05;;;;;;;22.07;15.27;;;;;;;;;;3573891;40;20029;-59
2021/07/26 01:22:31;;;;;;;24.53;14.97;;;;;;;;;;3575539;40;20152;-59
2021/07/26 01:24:56;;;;;;;26.70;15.57;;;;;;;;;;3575286;40;20102;-59
2021/07/26 01:27:21;;;;;;;26.48;15.85;;;;;;;;;;3572602;40;20072;-59
2021/07/26 01:29:46;;;;;;;31.63;16.47;;;;;;;;;;3573635;40;20444;-59
2021/07/26 01:32:11;;;;;;;26.27;15.97;;;;;;;;;;3573659;40;20025;-59
2021/07/26 01:34:37;;;;;;;27.50;15.40;;;;;;;;;;3574277;40;20036;-66
2021/07/26 01:37:02;;;;;;;25.30;14.47;;;;;;;;;;3574238;40;20024;-65
2021/07/26 01:39:27;;;;;;;22.60;15.10;;;;;;;;;;3572432;40;20414;-66
2021/07/26 01:41:54;;;;;;;22.27;14.97;;;;;;;;;;3573450;40;20080;-66
2021/07/26 01:44:20;;;;;;;25.45;15.00;;;;;;;;;;3573138;40;20048;-67
2021/07/26 01:46:45;;;;;;;25.83;14.40;;;;;;;;;;3574438;40;20024;-66
2021/07/26 01:49:10;;;;;;;20.73;14.20;;;;;;;;;;3574123;40;20036;-66
2021/07/26 01:51:35;;;;;;;23.03;15.13;;;;;;;;;;3577242;40;20048;-66
2021/07/26 01:54:01;;;;;;;24.90;16.07;;;;;;;;;;3574417;40;20024;-66
2021/07/26 01:56:26;;;;;;;26.03;14.87;;;;;;;;;;3574521;40;20033;-66
2021/07/26 01:58:51;;;;;;;22.40;15.43;;;;;;;;;;3574216;40;20447;-67
2021/07/26 02:01:16;;;;;;;27.43;15.53;;;;;;;;;;3575252;40;20032;-66
2021/07/26 02:03:41;;;;;;;26.03;16.20;;;;;;;;;;3573879;40;20017;-67
2021/07/26 02:06:07;;;;;;;24.80;15.93;;;;;;;;;;3575533;40;20337;-66
2021/07/26 02:08:32;;;;;;;21.10;15.30;;;;;;;;;;3573826;40;20048;-67
2021/07/26 02:10:57;;;;;;;22.73;15.40;;;;;;;;;;3572855;40;20032;-66
2021/07/26 02:13:22;;;;;;;23.17;15.43;;;;;;;;;;3578437;40;20037;-65
2021/07/26 02:15:48;;;;;;;24.40;15.50;;;;;;;;;;3575950;40;20037;-65
2021/07/26 02:18:13;;;;;;;22.50;15.70;;;;;;;;;;3575971;40;20029;-65
2021/07/26 02:20:38;;;;;;;23.95;15.60;;;;;;;;;;3576362;40;20044;-65
2021/07/26 02:23:03;;;;;;;23.57;14.87;;;;;;;;;;3574545;40;20506;-65
2021/07/26 02:25:29;;;;;;;24.93;15.53;;;;;;;;;;3575606;40;20185;-65
2021/07/26 02:27:54;;;;;;;21.10;14.87;;;;;;;;;;3574139;40;20021;-65
2021/07/26 02:30:19;;;;;;;20.50;14.40;;;;;;;;;;3573138;40;21129;-65
2021/07/26 02:32:44;;;;;;;23.80;14.47;;;;;;;;;;3574557;40;20027;-65
2021/07/26 02:35:10;;;;;;;20.27;14.80;;;;;;;;;;3576948;40;20025;-58
2021/07/26 02:37:35;;;;;;;21.67;14.53;;;;;;;;;;3575876;40;20266;-58
2021/07/26 02:40:00;;;;;;;21.97;15.40;;;;;;;;;;3576560;40;20053;-58
2021/07/26 02:42:25;;;;;;;19.87;13.90;;;;;;;;;;3575633;40;20028;-58
2021/07/26 02:44:50;;;;;;;29.20;15.80;;;;;;;;;;3575170;40;20029;-58
2021/07/26 02:47:16;;;;;;;19.93;14.60;;;;;;;;;;3574585;40;20040;-58
2021/07/26 02:49:41;;;;;;;21.10;15.00;;;;;;;;;;3575393;40;20696;-58
2021/07/26 02:52:06;;;;;;;23.30;15.13;;;;;;;;;;3576921;40;20035;-58
2021/07/26 02:54:31;;;;;;;22.95;14.45;;;;;;;;;;3576903;40;20020;-58
2021/07/26 02:56:56;;;;;;;24.13;14.47;;;;;;;;;;3576662;40;20028;-58
2021/07/26 02:59:22;;;;;;;20.93;13.93;;;;;;;;;;3575662;40;20110;-58
2021/07/26 03:01:49;;;;;;;26.10;14.63;;;;;;;;;;3575727;40;20056;-58
2021/07/26 03:04:14;;;;;;;24.58;14.73;;;;;;;;;;3574804;40;20088;-57
2021/07/26 03:06:40;;;;;;;18.90;13.60;;;;;;;;;;3578678;40;20020;-58
2021/07/26 03:09:05;;;;;;;22.27;14.60;;;;;;;;;;3576833;40;20043;-65
2021/07/26 03:11:30;;;;;;;20.83;14.73;;;;;;;;;;3577130;40;20059;-65
2021/07/26 03:13:55;;;;;;;19.60;14.57;;;;;;;;;;3576532;40;20035;-65
2021/07/26 03:16:21;;;;;;;21.30;14.85;;;;;;;;;;3576485;40;20080;-65
2021/07/26 03:18:46;;;;;;;23.58;16.58;;;;;;;;;;3577234;40;20049;-64
2021/07/26 03:21:12;;;;;;;22.90;15.40;;;;;;;;;;3573754;40;20322;-65
2021/07/26 03:23:37;;;;;;;23.80;15.63;;;;;;;;;;3575471;40;20267;-65
2021/07/26 03:26:02;;;;;;;20.83;15.10;;;;;;;;;;3577624;40;20021;-65
2021/07/26 03:28:27;;;;;;;21.87;15.57;;;;;;;;;;3576542;40;20340;-65
2021/07/26 03:30:53;;;;;;;24.07;16.23;;;;;;;;;;3576085;40;20024;-65
2021/07/26 03:33:18;;;;;;;27.57;15.30;;;;;;;;;;3575640;40;20037;-65
2021/07/26 03:35:43;;;;;;;22.60;14.47;;;;;;;;;;3577080;40;20162;-66
2021/07/26 03:38:08;;;;;;;25.97;15.20;;;;;;;;;;3574373;40;20044;-65
2021/07/26 03:40:34;;;;;;;21.88;15.30;;;;;;;;;;3575541;40;20032;-65
2021/07/26 03:42:59;;;;;;;22.83;15.87;;;;;;;;;;3576349;40;20134;-65
2021/07/26 03:45:24;;;;;;;25.53;15.83;;;;;;;;;;3576255;40;20533;-65
2021/07/26 03:47:49;;;;;;;24.33;16.97;;;;;;;;;;3577458;40;20096;-65
2021/07/26 03:50:14;;;;;;;31.17;17.17;;;;;;;;;;3577079;40;20080;-65
2021/07/26 03:52:39;;;;;;;24.17;16.30;;;;;;;;;;3579337;40;20509;-65
2021/07/26 03:55:05;;;;;;;24.80;17.30;;;;;;;;;;3577900;40;20047;-65
2021/07/26 03:57:30;;;;;;;26.33;17.10;;;;;;;;;;3576903;40;20025;-65
2021/07/26 03:59:55;;;;;;;29.10;17.70;;;;;;;;;;3576856;40;20047;-65
2021/07/26 04:02:20;;;;;;;26.47;15.57;;;;;;;;;;3579656;40;20406;-65
2021/07/26 04:04:45;;;;;;;26.00;16.70;;;;;;;;;;3577382;40;20121;-65
2021/07/26 04:07:19;;;;;;;23.27;15.43;;;;;;;;;;3576455;40;20029;-66
2021/07/26 04:09:47;;;;;;;24.65;15.00;;;;;;;;;;3573313;40;20368;-66
2021/07/26 04:12:18;;;;;;;22.92;14.48;;;;;;;;;;3577251;40;20028;-65
2021/07/26 04:14:44;;;;;;;22.98;14.55;;;;;;;;;;3577514;40;20033;-65
2021/07/26 04:17:09;;;;;;;24.58;14.73;;;;;;;;;;3575651;40;20479;-65
2021/07/26 04:19:34;;;;;;;24.27;13.67;;;;;;;;;;3576025;40;20021;-65
2021/07/26 04:21:59;;;;;;;18.02;12.75;;;;;;;;;;3574963;40;20105;-65
2021/07/26 04:24:25;;;;;;;19.13;13.07;;;;;;;;;;3577932;40;20314;-66
2021/07/26 04:26:50;;;;;;;18.35;12.95;;;;;;;;;;3575047;40;20029;-65
2021/07/26 04:29:15;;;;;;;19.03;12.50;;;;;;;;;;3575826;40;20021;-66
2021/07/26 04:31:41;;;;;;;17.30;12.90;;;;;;;;;;3578309;40;20032;-66
2021/07/26 04:34:06;;;;;;;20.10;12.67;;;;;;;;;;3577305;40;20122;-65
2021/07/26 04:36:31;;;;;;;19.10;12.40;;;;;;;;;;3576283;40;20039;-65
2021/07/26 04:38:56;;;;;;;22.93;12.70;;;;;;;;;;3577987;40;20028;-66
2021/07/26 04:41:22;;;;;;;19.40;12.27;;;;;;;;;;3577947;40;20687;-66
2021/07/26 04:43:47;;;;;;;19.90;13.10;;;;;;;;;;3577336;40;20020;-66
2021/07/26 04:46:12;;;;;;;18.45;12.00;;;;;;;;;;3578464;40;20061;-65
2021/07/26 04:48:37;;;;;;;18.80;12.43;;;;;;;;;;3577092;40;20889;-65
2021/07/26 04:51:03;;;;;;;23.13;12.40;;;;;;;;;;3575594;40;20472;-66
2021/07/26 04:53:28;;;;;;;18.23;11.63;;;;;;;;;;3576155;40;20029;-65
2021/07/26 04:55:53;;;;;;;16.97;11.87;;;;;;;;;;3579075;40;20029;-66
2021/07/26 04:58:19;;;;;;;15.73;11.68;;;;;;;;;;3574326;40;20361;-66
2021/07/26 05:00:44;;;;;;;21.17;12.90;;;;;;;;;;3576282;40;20028;-66
2021/07/26 05:03:09;;;;;;;16.70;12.37;;;;;;;;;;3577762;40;20704;-66
2021/07/26 05:05:34;;;;;;;20.73;13.20;;;;;;;;;;3568468;40;20302;-66
2021/07/26 05:08:00;;;;;;;17.67;12.20;;;;;;;;;;3579276;40;20053;-66
2021/07/26 05:10:25;;;;;;;19.90;12.97;;;;;;;;;;3576834;40;20048;-66
2021/07/26 05:12:50;;;;;;;17.85;12.38;;;;;;;;;;3577026;40;20028;-66
2021/07/26 05:15:15;;;;;;;19.37;13.13;;;;;;;;;;3577086;40;20033;-66
2021/07/26 05:17:41;;;;;;;21.67;13.27;;;;;;;;;;3577366;40;21014;-66
2021/07/26 05:20:06;;;;;;;19.07;12.17;;;;;;;;;;3579492;40;20283;-66
2021/07/26 05:22:31;;;;;;;19.33;12.83;;;;;;;;;;3577776;40;20043;-65
2021/07/26 05:24:56;;;;;;;19.60;12.73;;;;;;;;;;3574448;40;20080;-66
2021/07/26 05:27:21;;;;;;;22.90;13.03;;;;;;;;;;3576711;40;20635;-66
2021/07/26 05:29:47;;;;;;;22.67;13.87;;;;;;;;;;3575636;40;20095;-66
2021/07/26 05:32:12;;;;;;;20.80;12.97;;;;;;;;;;3576785;40;20024;-65
2021/07/26 05:34:37;;;;;;;20.33;13.43;;;;;;;;;;3577650;40;20272;-66
2021/07/26 05:37:02;;;;;;;20.60;12.60;;;;;;;;;;3578172;40;21336;-66
2021/07/26 05:39:28;;;;;;;20.43;12.77;;;;;;;;;;3575629;40;20133;-66
2021/07/26 05:41:53;;;;;;;18.60;12.48;;;;;;;;;;3569737;40;20037;-66
2021/07/26 05:44:18;;;;;;;20.43;13.17;;;;;;;;;;3575734;40;20761;-66
2021/07/26 05:46:44;;;;;;;18.27;12.83;;;;;;;;;;3578089;40;20084;-66
2021/07/26 05:49:09;;;;;;;23.47;12.50;;;;;;;;;;3575526;40;20255;-66
2021/07/26 05:51:34;;;;;;;18.60;12.37;;;;;;;;;;3576351;40;20024;-66
2021/07/26 05:53:59;;;;;;;22.43;12.80;;;;;;;;;;3576665;40;20766;-66
2021/07/26 05:56:25;;;;;;;23.63;13.07;;;;;;;;;;3577207;40;20028;-66
2021/07/26 05:58:50;;;;;;;17.87;12.13;;;;;;;;;;3575165;40;20033;-66
2021/07/26 06:03:43;;;;;;;20.80;12.77;;;;;;;;;;3572862;40;20417;-66
2021/07/26 06:06:09;;;;;;;21.60;13.33;;;;;;;;;;3575265;40;20114;-66
2021/07/26 06:08:34;;;;;;;21.10;12.57;;;;;;;;;;3574211;40;20254;-66
2021/07/26 06:10:59;;;;;;;21.20;13.03;;;;;;;;;;3577993;40;20021;-66
2021/07/26 06:13:24;;;;;;;20.83;12.70;;;;;;;;;;3576004;40;20040;-65
2021/07/26 06:15:49;;;;;;;20.23;13.60;;;;;;;;;;3575840;40;20284;-65
2021/07/26 06:18:15;;;;;;;22.30;13.63;;;;;;;;;;3576839;40;20263;-66
2021/07/26 06:20:40;;;;;;;21.63;12.77;;;;;;;;;;3575834;40;20149;-66
2021/07/26 06:23:05;;;;;;;18.50;13.10;;;;;;;;;;3576904;40;20033;-66
2021/07/26 06:25:30;;;;;;;16.63;11.93;;;;;;;;;;3576920;40;20035;-66
2021/07/26 06:27:55;;;;;;;17.70;12.63;;;;;;;;;;3578806;40;20040;-66
2021/07/26 06:30:21;;;;;;;19.90;12.67;;;;;;;;;;3575737;40;20044;-66
2021/07/26 06:32:48;;;;;;;20.02;12.73;;;;;;;;;;3577619;40;20044;-66
2021/07/26 06:35:13;;;;;;;18.70;12.52;;;;;;;;;;3576144;40;20021;-66
2021/07/26 06:37:38;;;;;;;22.57;12.10;;;;;;;;;;3576074;40;20084;-66
2021/07/26 06:40:06;;;;;;;19.67;11.53;;;;;;;;;;3572497;40;20036;-66
2021/07/26 06:42:31;;;;;;;19.42;11.27;;;;;;;;;;3577354;40;20350;-66
2021/07/26 06:44:56;;;;;;;15.63;10.43;;;;;;;;;;3576427;40;20497;-66
2021/07/26 06:47:21;;;;;;;18.45;11.70;;;;;;;;;;3574184;40;20036;-66
2021/07/26 06:49:47;;;;;;;17.47;10.93;;;;;;;;;;3578213;40;20058;-66
2021/07/26 06:52:12;;;;;;;15.47;11.40;;;;;;;;;;3573388;40;20138;-66
2021/07/26 06:54:37;;;;;;;15.77;10.85;;;;;;;;;;3575052;40;20033;-66
2021/07/26 06:57:02;;;;;;;17.07;11.37;;;;;;;;;;3577730;40;20052;-66
2021/07/26 06:59:28;;;;;;;17.70;11.90;;;;;;;;;;3567020;40;20047;-66
2021/07/26 07:01:53;;;;;;;15.97;10.43;;;;;;;;;;3577360;40;20414;-65
2021/07/26 07:04:18;;;;;;;15.00;10.17;;;;;;;;;;3577198;40;20028;-66
2021/07/26 07:06:43;;;;;;;18.50;11.13;;;;;;;;;;3575140;40;20082;-66
2021/07/26 07:09:09;;;;;;;17.90;10.73;;;;;;;;;;3573630;40;20516;-67
2021/07/26 07:11:34;;;;;;;18.17;10.13;;;;;;;;;;3572843;40;20024;-66
2021/07/26 07:13:59;;;;;;;15.93;10.77;;;;;;;;;;3574899;40;21145;-66
2021/07/26 07:16:24;;;;;;;17.10;10.57;;;;;;;;;;3576290;40;20099;-66
2021/07/26 07:18:50;;;;;;;19.60;11.07;;;;;;;;;;3576084;40;20336;-66
2021/07/26 07:21:15;;;;;;;18.53;10.60;;;;;;;;;;3577294;40;20121;-66
2021/07/26 07:23:41;;;;;;;20.00;10.57;;;;;;;;;;3575170;40;20109;-66
2021/07/26 07:26:06;;;;;;;17.88;9.95;;;;;;;;;;3576707;40;20047;-65
2021/07/26 07:28:31;;;;;;;15.20;9.57;;;;;;;;;;3574535;40;20317;-65
2021/07/26 07:30:56;;;;;;;13.13;9.23;;;;;;;;;;3576049;40;20040;-65
2021/07/26 07:33:22;;;;;;;14.43;9.47;;;;;;;;;;3574307;40;20036;-66
2021/07/26 07:35:47;;;;;;;50.45;32.58;;;;;;;;;;3577661;40;20952;-66
2021/07/26 07:38:12;;;;;;;22.20;15.17;;;;;;;;;;3573668;40;20060;-66
2021/07/26 07:40:37;;;;;;;18.90;10.83;;;;;;;;;;3577455;40;20036;-66
2021/07/26 07:43:02;;;;;;;16.97;11.13;;;;;;;;;;3577624;40;20133;-66
2021/07/26 07:45:28;;;;;;;38.80;21.57;;;;;;;;;;3576182;40;20047;-66
2021/07/26 07:47:55;;;;;;;15.67;10.43;;;;;;;;;;3574900;40;20064;-66
2021/07/26 07:50:20;;;;;;;19.42;10.55;;;;;;;;;;3573936;40;20032;-66
2021/07/26 07:52:46;;;;;;;16.53;9.80;;;;;;;;;;3572555;40;20355;-66
2021/07/26 07:55:11;;;;;;;15.52;10.35;;;;;;;;;;3576198;40;20033;-66
2021/07/26 07:57:36;;;;;;;15.45;10.38;;;;;;;;;;3575291;40;20092;-66
2021/07/26 08:00:02;;;;;;;18.43;10.60;;;;;;;;;;3576439;40;20033;-66
2021/07/26 08:02:30;;;;;;;17.48;10.50;;;;;;;;;;3574586;40;20053;-66
2021/07/26 08:04:56;;;;;;;20.73;10.77;;;;;;;;;;3578959;40;20033;-66
2021/07/26 08:07:21;;;;;;;17.00;10.07;;;;;;;;;;3576163;40;20073;-66
2021/07/26 08:09:46;;;;;;;18.47;10.73;;;;;;;;;;3576577;40;20033;-66
2021/07/26 08:12:11;;;;;;;14.70;10.57;;;;;;;;;;3576512;40;20425;-66
2021/07/26 08:14:36;;;;;;;15.67;10.17;;;;;;;;;;3576094;40;20029;-66
2021/07/26 08:17:02;;;;;;;15.63;9.87;;;;;;;;;;3575546;40;20403;-66
2021/07/26 08:19:27;;;;;;;17.23;10.03;;;;;;;;;;3578111;40;20040;-66
2021/07/26 08:21:52;;;;;;;17.57;10.37;;;;;;;;;;3575927;40;20089;-66
2021/07/26 08:24:17;;;;;;;16.37;10.43;;;;;;;;;;3576670;40;20047;-66
2021/07/26 08:26:43;;;;;;;14.57;10.00;;;;;;;;;;3576486;40;20666;-66
2021/07/26 08:29:08;;;;;;;18.50;9.80;;;;;;;;;;3577819;40;20036;-66
2021/07/26 08:31:33;;;;;;;15.33;11.17;;;;;;;;;;3579288;40;20244;-66
2021/07/26 08:33:58;;;;;;;28.93;15.53;;;;;;;;;;3575573;40;20074;-66
2021/07/26 08:36:23;;;;;;;19.90;12.87;;;;;;;;;;3577989;40;20743;-66
2021/07/26 08:38:49;;;;;;;16.13;9.37;;;;;;;;;;3578409;40;20036;-66
2021/07/26 08:41:14;;;;;;;14.33;9.03;;;;;;;;;;3577082;40;20044;-66
2021/07/26 08:43:39;;;;;;;26.77;15.43;;;;;;;;;;3578684;40;20033;-66
2021/07/26 08:46:05;;;;;;;15.87;10.73;;;;;;;;;;3577322;40;20021;-66
2021/07/26 08:48:30;;;;;;;10.90;8.70;;;;;;;;;;3578923;40;20122;-66
2021/07/26 08:50:55;;;;;;;22.13;10.13;;;;;;;;;;3575997;40;20040;-65
2021/07/26 08:53:20;;;;;;;17.33;9.57;;;;;;;;;;3576215;40;20370;-67
2021/07/26 08:55:45;;;;;;;16.60;9.23;;;;;;;;;;3577377;40;20040;-67
2021/07/26 08:58:11;;;;;;;12.30;9.57;;;;;;;;;;3576727;40;20118;-66
2021/07/26 09:00:38;;;;;;;15.30;9.87;;;;;;;;;;3578321;40;20033;-67
2021/07/26 09:03:03;;;;;;;17.38;8.93;;;;;;;;;;3576203;40;20259;-66
2021/07/26 09:05:28;;;;;;;10.50;7.77;;;;;;;;;;3580722;40;20034;-67
2021/07/26 09:07:53;;;;;;;22.77;14.47;;;;;;;;;;3579691;40;20047;-69
2021/07/26 09:10:18;;;;;;;20.83;12.97;;;;;;;;;;3578177;40;20032;-66
2021/07/26 09:12:44;;;;;;;18.27;11.00;;;;;;;;;;3577140;40;20036;-66
2021/07/26 09:15:09;;;;;;;14.77;9.30;;;;;;;;;;3578322;40;20698;-67
2021/07/26 09:17:34;;;;;;;10.03;7.50;;;;;;;;;;3580756;40;20099;-67
2021/07/26 09:19:59;;;;;;;10.90;7.83;;;;;;;;;;3578462;40;20036;-67
2021/07/26 09:22:25;;;;;;;13.37;6.90;;;;;;;;;;3576970;40;20045;-66
2021/07/26 09:24:50;;;;;;;9.20;6.60;;;;;;;;;;3579249;40;20051;-69
2021/07/26 09:27:16;;;;;;;10.33;7.20;;;;;;;;;;3579225;40;20032;-67
2021/07/26 09:29:41;;;;;;;9.05;6.55;;;;;;;;;;3578704;40;20699;-66
2021/07/26 09:32:06;;;;;;;11.50;6.90;;;;;;;;;;3576877;40;20031;-66
2021/07/26 09:34:32;;;;;;;10.67;6.13;;;;;;;;;;3578674;40;20033;-65
2021/07/26 09:36:57;;;;;;;14.80;7.17;;;;;;;;;;3577903;40;20708;-66
2021/07/26 09:39:22;;;;;;;10.57;6.40;;;;;;;;;;3575458;40;20431;-66
2021/07/26 09:41:48;;;;;;;8.47;6.97;;;;;;;;;;3576563;40;20017;-66
2021/07/26 09:44:13;;;;;;;18.90;9.10;;;;;;;;;;3577302;40;20081;-66
2021/07/26 09:46:39;;;;;;;12.73;7.07;;;;;;;;;;3578872;40;20028;-66
2021/07/26 09:49:04;;;;;;;9.98;7.40;;;;;;;;;;3578164;40;20064;-66
2021/07/26 09:51:30;;;;;;;9.73;6.80;;;;;;;;;;3576599;40;20028;-66
2021/07/26 09:53:55;;;;;;;9.18;6.70;;;;;;;;;;3577756;40;20025;-67
2021/07/26 09:56:21;;;;;;;11.43;7.00;;;;;;;;;;3575164;40;20021;-66
2021/07/26 09:58:46;;;;;;;9.40;6.50;;;;;;;;;;3576053;40;20021;-66
2021/07/26 10:01:15;;;;;;;13.60;7.30;;;;;;;;;;3577733;40;20267;-66
2021/07/26 10:03:41;;;;;;;10.75;6.72;;;;;;;;;;3576788;40;20024;-66
2021/07/26 10:06:08;;;;;;;16.75;9.98;;;;;;;;;;3577743;40;20663;-66
2021/07/26 10:08:34;;;;;;;14.60;7.63;;;;;;;;;;3576865;40;20021;-66
2021/07/26 10:10:59;;;;;;;11.40;7.35;;;;;;;;;;3576121;40;20029;-66
2021/07/26 10:13:24;;;;;;;11.40;7.97;;;;;;;;;;3576872;40;20757;-66
2021/07/26 10:15:49;;;;;;;9.10;6.97;;;;;;;;;;3577029;40;20860;-66
2021/07/26 10:18:15;;;;;;;9.30;7.03;;;;;;;;;;3578778;40;20444;-67
2021/07/26 10:20:40;;;;;;;31.67;20.43;;;;;;;;;;3579575;40;20048;-67
2021/07/26 10:23:05;;;;;;;9.63;6.80;;;;;;;;;;3576109;40;20053;-67
2021/07/26 10:25:30;;;;;;;11.87;7.07;;;;;;;;;;3576674;40;20032;-67
2021/07/26 10:27:56;;;;;;;10.67;6.63;;;;;;;;;;3576742;40;20791;-66
2021/07/26 10:30:21;;;;;;;10.43;6.88;;;;;;;;;;3575799;40;20032;-66
2021/07/26 10:32:46;;;;;;;8.67;6.77;;;;;;;;;;3577376;40;20513;-67
2021/07/26 10:35:12;;;;;;;9.40;6.53;;;;;;;;;;3575756;40;20173;-66
2021/07/26 10:37:37;;;;;;;13.43;8.20;;;;;;;;;;3580206;40;20808;-66
2021/07/26 10:40:03;;;;;;;13.93;8.10;;;;;;;;;;3575906;40;20102;-66
2021/07/26 10:42:28;;;;;;;14.30;8.93;;;;;;;;;;3575627;40;20048;-66
2021/07/26 10:44:54;;;;;;;10.37;8.03;;;;;;;;;;3574839;40;20697;-66
2021/07/26 10:47:19;;;;;;;10.37;7.03;;;;;;;;;;3575191;40;20040;-66
2021/07/26 10:49:45;;;;;;;13.10;6.93;;;;;;;;;;3576102;40;20055;-65
2021/07/26 10:52:10;;;;;;;11.68;6.95;;;;;;;;;;3575543;40;20037;-64
2021/07/26 10:54:36;;;;;;;23.00;9.07;;;;;;;;;;3574579;40;20033;-65
2021/07/26 10:57:13;;;;;;;12.37;7.63;;;;;;;;;;3576979;40;20398;-65
2021/07/26 10:59:38;;;;;;;17.30;8.65;;;;;;;;;;3576602;40;20451;-58
2021/07/26 11:02:03;;;;;;;12.13;8.43;;;;;;;;;;3576575;40;20025;-59
2021/07/26 11:04:28;;;;;;;15.20;8.07;;;;;;;;;;3578683;40;20025;-60
2021/07/26 11:06:53;;;;;;;16.20;8.23;;;;;;;;;;3573703;40;20369;-59
2021/07/26 11:09:19;;;;;;;13.33;8.20;;;;;;;;;;3576196;40;20040;-59
2021/07/26 11:11:44;;;;;;;14.60;8.43;;;;;;;;;;3573916;40;20041;-59
2021/07/26 11:14:10;;;;;;;18.40;8.17;;;;;;;;;;3578184;40;20488;-58
2021/07/26 11:16:35;;;;;;;12.15;7.47;;;;;;;;;;3575531;40;20560;-59
2021/07/26 11:19:00;;;;;;;11.37;7.30;;;;;;;;;;3575744;40;20567;-59
2021/07/26 11:21:25;;;;;;;13.37;6.97;;;;;;;;;;3577006;40;20416;-59
2021/07/26 11:23:51;;;;;;;10.10;6.40;;;;;;;;;;3576791;40;20516;-59
2021/07/26 11:26:16;;;;;;;11.73;6.28;;;;;;;;;;3576940;40;20035;-59
2021/07/26 11:28:41;;;;;;;10.37;6.50;;;;;;;;;;3574446;40;20497;-59
2021/07/26 11:31:06;;;;;;;8.13;5.80;;;;;;;;;;3576653;40;20415;-59
2021/07/26 11:33:33;;;;;;;8.43;4.60;;;;;;;;;;3576769;40;20397;-59
2021/07/26 11:36:03;;;;;;;9.75;5.07;;;;;;;;;;3575461;40;20492;-59
2021/07/26 11:38:28;;;;;;;6.65;4.55;;;;;;;;;;3576275;40;20557;-59
2021/07/26 11:40:53;;;;;;;10.20;5.20;;;;;;;;;;3575735;40;20041;-59
2021/07/26 11:43:18;;;;;;;8.07;5.40;;;;;;;;;;3578067;40;20033;-60
2021/07/26 11:45:47;;;;;;;5.97;4.40;;;;;;;;;;3574857;40;20270;-59
2021/07/26 11:48:12;;;;;;;5.65;4.00;;;;;;;;;;3573541;40;20052;-59
2021/07/26 11:50:38;;;;;;;5.53;4.27;;;;;;;;;;3575693;40;20017;-61
2021/07/26 11:53:03;;;;;;;7.90;4.20;;;;;;;;;;3576163;40;20054;-59
2021/07/26 11:55:28;;;;;;;6.90;4.37;;;;;;;;;;3578345;40;20032;-59
2021/07/26 11:57:53;;;;;;;9.50;5.60;;;;;;;;;;3576708;40;20029;-59
2021/07/26 12:00:19;;;;;;;8.10;4.60;;;;;;;;;;3575913;40;20021;-59
2021/07/26 12:02:44;;;;;;;15.37;5.10;;;;;;;;;;3577561;40;20073;-59
2021/07/26 12:05:09;;;;;;;6.40;4.37;;;;;;;;;;3575393;40;20425;-59
2021/07/26 12:07:35;;;;;;;9.32;5.18;;;;;;;;;;3575802;40;20494;-59
2021/07/26 12:10:00;;;;;;;6.20;4.50;;;;;;;;;;3577145;40;20125;-59
2021/07/26 12:12:25;;;;;;;7.67;4.90;;;;;;;;;;3575559;40;20036;-59
2021/07/26 12:14:51;;;;;;;7.30;4.97;;;;;;;;;;3574096;40;20032;-59
2021/07/26 12:17:16;;;;;;;11.37;6.80;;;;;;;;;;3575748;40;20033;-59
2021/07/26 12:19:41;;;;;;;9.30;5.23;;;;;;;;;;3576177;40;20033;-59
2021/07/26 12:22:06;;;;;;;13.23;7.13;;;;;;;;;;3575386;40;20052;-59
2021/07/26 12:24:31;;;;;;;7.50;5.17;;;;;;;;;;3576603;40;20504;-59
2021/07/26 12:26:57;;;;;;;8.63;4.93;;;;;;;;;;3577828;40;20450;-59
2021/07/26 12:29:22;;;;;;;6.70;5.40;;;;;;;;;;3575612;40;20029;-59
2021/07/26 12:31:47;;;;;;;7.50;4.90;;;;;;;;;;3576392;40;20036;-61
2021/07/26 12:34:13;;;;;;;7.07;4.73;;;;;;;;;;3576002;40;20028;-59
2021/07/26 12:36:38;;;;;;;7.70;5.40;;;;;;;;;;3576735;40;20080;-59
2021/07/26 12:39:04;;;;;;;9.67;5.23;;;;;;;;;;3577058;40;20447;-59
2021/07/26 12:41:29;;;;;;;9.43;5.53;;;;;;;;;;3576212;40;20065;-59
2021/07/26 12:43:55;;;;;;;9.57;5.67;;;;;;;;;;3577773;40;20044;-59
2021/07/26 12:46:20;;;;;;;7.70;5.63;;;;;;;;;;3574705;40;20017;-59
2021/07/26 12:48:45;;;;;;;7.77;5.67;;;;;;;;;;3576712;40;20718;-59
2021/07/26 12:51:10;;;;;;;14.57;5.53;;;;;;;;;;3574767;40;20009;-59
2021/07/26 12:53:36;;;;;;;10.07;5.50;;;;;;;;;;3580291;40;20025;-59
2021/07/26 12:56:01;;;;;;;9.93;5.70;;;;;;;;;;3577038;40;20373;-59
2021/07/26 12:58:26;;;;;;;9.20;5.00;;;;;;;;;;3576640;40;20040;-59
2021/07/26 13:00:51;;;;;;;8.50;4.80;;;;;;;;;;3577810;40;20040;-60
2021/07/26 13:03:17;;;;;;;10.50;6.00;;;;;;;;;;3575366;40;20321;-59
2021/07/26 13:05:42;;;;;;;7.60;4.93;;;;;;;;;;3576115;40;20310;-59
2021/07/26 13:08:07;;;;;;;16.97;9.87;;;;;;;;;;3577396;40;20028;-59
2021/07/26 13:10:32;;;;;;;7.53;5.80;;;;;;;;;;3577520;40;20036;-59
2021/07/26 13:12:58;;;;;;;7.23;4.23;;;;;;;;;;3577504;40;20032;-60
2021/07/26 13:15:23;;;;;;;6.67;4.17;;;;;;;;;;3576780;40;20107;-59
2021/07/26 13:17:48;;;;;;;6.37;4.13;;;;;;;;;;3576396;40;20028;-59
2021/07/26 13:20:13;;;;;;;6.50;4.10;;;;;;;;;;3577023;40;20033;-60
2021/07/26 13:22:39;;;;;;;6.00;3.93;;;;;;;;;;3575790;40;20040;-60
2021/07/26 13:25:04;;;;;;;7.53;4.00;;;;;;;;;;3576461;40;20021;-59
2021/07/26 13:27:29;;;;;;;6.80;3.97;;;;;;;;;;3577092;40;20040;-59
2021/07/26 13:29:54;;;;;;;5.57;3.60;;;;;;;;;;3577074;40;20044;-59
2021/07/26 13:32:19;;;;;;;6.97;4.20;;;;;;;;;;3576818;40;20055;-59
2021/07/26 13:34:45;;;;;;;8.13;4.10;;;;;;;;;;3579172;40;20500;-59
2021/07/26 13:37:10;;;;;;;8.53;6.03;;;;;;;;;;3578749;40;20033;-59
2021/07/26 13:39:36;;;;;;;6.30;4.83;;;;;;;;;;3576977;40;20346;-59
2021/07/26 13:42:01;;;;;;;6.47;4.20;;;;;;;;;;3577476;40;20686;-59
2021/07/26 13:44:28;;;;;;;7.27;4.27;;;;;;;;;;3575818;40;20024;-59
2021/07/26 13:46:53;;;;;;;6.05;3.83;;;;;;;;;;3576804;40;20031;-59
2021/07/26 13:49:18;;;;;;;4.53;3.50;;;;;;;;;;3579033;40;20048;-59
2021/07/26 13:51:44;;;;;;;6.63;3.90;;;;;;;;;;3575311;40;20471;-59
2021/07/26 13:54:10;;;;;;;4.03;3.20;;;;;;;;;;3577080;40;20054;-59
2021/07/26 13:56:35;;;;;;;5.80;3.53;;;;;;;;;;3576961;40;20029;-60
2021/07/26 13:59:00;;;;;;;6.93;3.20;;;;;;;;;;3576715;40;20279;-59
2021/07/26 14:01:25;;;;;;;4.77;3.27;;;;;;;;;;3575010;40;20396;-60
2021/07/26 14:03:50;;;;;;;5.60;3.27;;;;;;;;;;3577152;40;20036;-60
2021/07/26 14:06:16;;;;;;;4.77;3.47;;;;;;;;;;3578257;40;20036;-60
2021/07/26 14:08:42;;;;;;;5.97;3.60;;;;;;;;;;3576013;40;20403;-60
2021/07/26 14:11:07;;;;;;;6.35;3.47;;;;;;;;;;3579271;40;20805;-60
2021/07/26 14:13:32;;;;;;;11.53;3.23;;;;;;;;;;3576946;40;20056;-60
2021/07/26 14:15:57;;;;;;;5.00;3.57;;;;;;;;;;3576418;40;20692;-60
2021/07/26 14:18:23;;;;;;;4.23;3.17;;;;;;;;;;3575809;40;20113;-61